St. Paul, Alberta

Past 24 Hour Conditions

Date / Time
(MDT)
Conditions Temp
(°F)
Humidity
(%)
Dew Point
(°F)
Wind
(mph)
Pressure
(inches)
Visibility
(miles)
24 October 2014
7:00 N/A 35   85 31 WSW 12 N/A N/A
6:00 N/A 35   81 30 W 8 N/A N/A
5:00 N/A 36 79 31 WSW 11 N/A N/A
4:00 N/A 37 80 31 WSW 9 N/A N/A
3:00 N/A 38 75 31 W 14 N/A N/A
2:00 N/A 39 73 31 W 15 N/A N/A
1:00 N/A 40 70 31 W 15 N/A N/A
00:00 N/A 41 68 31 WSW 12 N/A N/A
23 October 2014
23:00 N/A 37 74 29 WSW 11 N/A N/A
22:00 N/A 35   72 26 SSW 5 N/A N/A
21:00 N/A 42 60 30 W 7 N/A N/A
20:00 N/A 46 56 31 W 8 N/A N/A
19:00 N/A 46 55 30 SW 11 N/A N/A
18:00 N/A 51 46 31 WSW 9 N/A N/A
17:00 N/A 52 47 32 WSW 8 N/A N/A
16:00 N/A 56 43 34 W 11 N/A N/A
15:00 N/A 61 34 32 SW 19 N/A N/A
14:00 N/A 62   37 35 SSW 16 N/A N/A
13:00 N/A 59 46 38 SSW 8 N/A N/A
12:00 N/A 54 55 38 S 11 N/A N/A
11:00 N/A 48 65 37 SSE 10 N/A N/A
10:00 N/A 41 79 35 SE 8 N/A N/A
9:00 N/A 36 88 32 SE 7 N/A N/A
8:00 N/A 37 85 33 ESE 7 N/A N/A
7:00 N/A 38 81 33 E 6 N/A N/A
N/A Not available
↑ Highest temperature
↓ Lowest temperature

If you require additional historical weather information, please visit Climate Data Online.

Date modified: